»·PEaware :: N4GB KSMX-KBFL

N4GB :: KSMX-KBFL

FLIGHT INFORMATION

Flight Status: Arrived
Operator: Privately registered:
United States
More flights under this callsign
Pilot: Glenn B. (16786)
Aircraft: Unknown
(PIPA)
More flights by this aircraft type
Origin: KSMX Santa Maria Pub/Capt Hancock
United States
Destination: KBFL Meadows
United States
More flights between these airports :: More routes between these airports
Route: FLW
File this flight plan on PilotEdge
Remarks:
Altitude:
(Current/Filed)
7,500ft
Speed:
(Current/Filed)
150kts
Departed: 12-Oct-17 03:07 PM
Arrived: 12-Oct-17 03:39 PM
Distance/Time
Traveled:
76nm/0:32
Distance/Time
To Go:
Arrived

Flight Plot

Page will automatically refresh every two minutes.


Map Options




Map Legend


Flown Route
Filed Route
Departure Airport
Arrival Airport
Navaid (VOR, NDB)
Fix

Horizontal Profiles

Position Reports

Time Latitude Longitude Heading Altitude Ground
Speed
12-Oct-17 14:41 34.895840 -120.444814 313 264ft 0kts
12-Oct-17 14:42 34.895840 -120.444814 313 264ft 0kts
12-Oct-17 14:43 34.895844 -120.444819 313 264ft 0kts
12-Oct-17 14:44 34.895844 -120.444819 313 264ft 0kts
12-Oct-17 14:45 34.895844 -120.444819 313 264ft 0kts
12-Oct-17 14:46 34.895844 -120.444819 313 264ft 0kts
12-Oct-17 14:47 34.895844 -120.444819 313 264ft 0kts
12-Oct-17 14:48 34.895844 -120.444819 313 264ft 0kts
12-Oct-17 14:49 34.895844 -120.444819 313 264ft 0kts
12-Oct-17 14:50 34.895844 -120.444819 313 264ft 0kts
12-Oct-17 14:51 34.895844 -120.444819 313 264ft 0kts
12-Oct-17 14:52 34.895844 -120.444819 313 264ft 0kts
12-Oct-17 14:53 34.895844 -120.444819 313 264ft 0kts
12-Oct-17 14:54 34.895844 -120.444819 313 264ft 0kts
12-Oct-17 14:55 34.895844 -120.444819 313 264ft 0kts
12-Oct-17 14:56 34.895844 -120.444819 313 264ft 0kts
12-Oct-17 14:57 34.895844 -120.444819 313 264ft 0kts
12-Oct-17 14:58 34.895844 -120.444819 313 264ft 0kts
12-Oct-17 14:59 34.895844 -120.444819 313 264ft 0kts
12-Oct-17 15:00 34.895844 -120.444819 313 264ft 0kts
12-Oct-17 15:01 34.895426 -120.445137 128 264ft 8kts
12-Oct-17 15:02 34.893246 -120.444666 229 264ft 0kts
12-Oct-17 15:03 34.893246 -120.444666 229 264ft 0kts
12-Oct-17 15:04 34.893246 -120.444666 229 264ft 0kts
12-Oct-17 15:05 34.893246 -120.444666 229 264ft 0kts
12-Oct-17 15:05 34.893246 -120.444666 229 264ft 0kts
12-Oct-17 15:06 34.893246 -120.444666 229 264ft 0kts
12-Oct-17 15:08 34.893246 -120.444666 229 264ft 0kts
12-Oct-17 15:08 34.893246 -120.444666 229 264ft 0kts
12-Oct-17 15:09 34.893246 -120.444666 229 264ft 0kts
12-Oct-17 15:10 34.892926 -120.445056 225 264ft 11kts
12-Oct-17 15:11 34.904274 -120.459173 314 633ft 114kts
12-Oct-17 15:13 34.940166 -120.468501 47 2123ft 157kts
12-Oct-17 15:13 34.957772 -120.425224 57 2896ft 178kts
12-Oct-17 15:14 34.979644 -120.371425 57 4046ft 174kts
12-Oct-17 15:15 34.993605 -120.316169 69 5299ft 169kts
12-Oct-17 15:16 35.005718 -120.262254 70 6580ft 159kts
12-Oct-17 15:17 35.016913 -120.211243 70 7504ft 168kts
12-Oct-17 15:18 35.030073 -120.151060 69 7521ft 190kts
12-Oct-17 15:19 35.044139 -120.088058 69 7526ft 193kts
12-Oct-17 15:20 35.057292 -120.028163 69 7488ft 173kts
12-Oct-17 15:21 35.069301 -119.973668 68 7490ft 162kts
12-Oct-17 15:22 35.081051 -119.920311 68 7408ft 161kts
12-Oct-17 15:23 35.099163 -119.872198 51 7415ft 158kts
12-Oct-17 15:24 35.121974 -119.823214 54 7416ft 180kts
12-Oct-17 15:25 35.145840 -119.769706 60 7497ft 179kts
12-Oct-17 15:26 35.168432 -119.715738 61 7492ft 177kts
12-Oct-17 15:27 35.189210 -119.665282 61 7493ft 177kts
12-Oct-17 15:28 35.212555 -119.608200 61 6810ft 191kts
12-Oct-17 15:29 35.234709 -119.553655 61 5991ft 173kts
12-Oct-17 15:30 35.255695 -119.501872 61 5190ft 169kts
12-Oct-17 15:31 35.274951 -119.450760 63 4265ft 163kts
12-Oct-17 15:32 35.293385 -119.400512 63 3267ft 161kts
12-Oct-17 15:33 35.310265 -119.347502 67 2500ft 171kts
12-Oct-17 15:34 35.325688 -119.298438 67 2489ft 146kts
12-Oct-17 15:35 35.320108 -119.255217 164 2490ft 160kts
12-Oct-17 15:36 35.293894 -119.213518 111 2494ft 160kts
12-Oct-17 15:37 35.305463 -119.166444 50 2494ft 157kts
12-Oct-17 15:38 35.331138 -119.126631 50 2488ft 147kts
12-Oct-17 15:39 35.357512 -119.087694 43 1950ft 160kts
12-Oct-17 15:40 35.384812 -119.054695 39 1385ft 96kts
12-Oct-17 15:41 35.405339 -119.035033 15 1214ft 83kts
12-Oct-17 15:42 35.425459 -119.046117 315 692ft 86kts
12-Oct-17 15:43 35.436105 -119.058015 37 497ft 9kts
12-Oct-17 15:44 35.436273 -119.056902 121 497ft 11kts
12-Oct-17 15:45 35.432718 -119.052651 136 497ft 19kts
12-Oct-17 15:46 35.428755 -119.047866 136 497ft 18kts
12-Oct-17 15:47 35.429060 -119.046122 330 497ft 0kts

Navigation Log

Ident Type
1. KSMX Airport
2. FLW Navaid
3. KBFL Airport